Flugplatz Bad Frankenhausen

Für EDOF sind keine METAR/TAF Berichte vorhanden.
Es werden die Flugwettermeldungen vom Flugplatz Erfurt in 45 km Entfernung angezeigt.

Bericht für EDDE

vom 07.03. um 01:20 UTC

Wind 8 kt aus 210°

Sichtweite 10 km oder mehr

gute Sicht, keine Wolken < 5000 ft, keine CB, keine Wettererscheinungen (CAVOK)

Temperatur -5.0°C

Taupunkt -7.0°C

Luftfeuchtigkeit 86%

Luftdruck 1027 hPa

EDDE 070120Z 21008KT CAVOK M05/M07 Q1027

Prognose für EDDE

vom 06.03. um 23:00 UTC

Zwischen 00:00 UTC und 09:00 UTC

Wind 6 kt aus 230°

Sichtweite 10 km oder mehr

keine signifikanten Wettererscheinungen

keine Wolken


Zwischen 09:00 und 11:00 UTC übergehend zu

Wind 7 kt aus 300°

Sichtweite 10 km oder mehr

keine signifikanten Wettererscheinungen

keine Wolken

TAF EDDE 062300Z 0700/0724 23006KT CAVOK BECMG 0709/0711 30007KT
Impressum